createdAt,value
2022-08-08T00:00:59.911Z,18.40
2022-08-08T00:02:59.384Z,18.40
2022-08-08T00:05:44.256Z,18.40
2022-08-08T00:08:30.977Z,18.40
2022-08-08T00:11:13.227Z,18.20
2022-08-08T00:14:17.641Z,18.30
2022-08-08T00:16:52.621Z,18.20
2022-08-08T00:19:29.570Z,18.20
2022-08-08T00:22:10.221Z,18.20
2022-08-08T00:24:46.370Z,18.20
2022-08-08T00:27:17.475Z,18.20
2022-08-08T00:29:56.604Z,18.20
2022-08-08T00:32:35.055Z,18.20
2022-08-08T00:35:37.649Z,18.10
2022-08-08T00:38:44.582Z,18.10
2022-08-08T00:42:07.579Z,18.10
2022-08-08T00:45:34.700Z,18.10
2022-08-08T00:48:55.168Z,18.00
2022-08-08T00:52:06.834Z,18.00
2022-08-08T00:55:05.787Z,17.80
2022-08-08T00:58:30.762Z,17.70
2022-08-08T01:01:19.627Z,17.70
2022-08-08T01:04:43.944Z,17.70
2022-08-08T01:07:57.176Z,17.70
2022-08-08T01:11:24.029Z,17.70
2022-08-08T01:14:53.304Z,17.70
2022-08-08T01:18:16.311Z,17.60
2022-08-08T01:22:10.261Z,17.70
2022-08-08T01:25:17.894Z,17.60
2022-08-08T01:28:18.706Z,17.50
2022-08-08T01:32:12.889Z,17.70
2022-08-08T01:35:02.302Z,17.60
2022-08-08T01:38:11.660Z,17.60
2022-08-08T01:40:52.303Z,17.60
2022-08-08T01:43:44.265Z,17.50
2022-08-08T01:46:40.600Z,17.60
2022-08-08T01:49:22.932Z,17.60
2022-08-08T01:54:07.450Z,17.50
2022-08-08T01:56:26.297Z,17.40
2022-08-08T01:58:46.291Z,17.40
2022-08-08T02:01:23.437Z,17.40
2022-08-08T02:04:04.852Z,17.30
2022-08-08T02:06:55.783Z,17.30
2022-08-08T02:10:01.620Z,17.30
2022-08-08T02:12:49.189Z,17.40
2022-08-08T02:15:34.616Z,17.30
2022-08-08T02:18:11.695Z,17.30
2022-08-08T02:21:13.419Z,17.30
2022-08-08T02:23:54.556Z,17.30
2022-08-08T02:26:33.184Z,17.20
2022-08-08T02:29:22.034Z,17.30
2022-08-08T02:32:41.453Z,17.30
2022-08-08T02:36:05.151Z,17.20
2022-08-08T02:38:56.775Z,17.30
2022-08-08T02:42:05.821Z,17.30
2022-08-08T02:45:23.067Z,17.30
2022-08-08T02:48:45.414Z,17.20
2022-08-08T02:51:59.058Z,17.20
2022-08-08T02:55:02.090Z,17.20
2022-08-08T02:58:18.986Z,17.10
2022-08-08T03:01:50.851Z,17.10
2022-08-08T03:05:32.798Z,17.10
2022-08-08T03:09:16.279Z,16.90
2022-08-08T03:13:02.081Z,17.00
2022-08-08T03:16:09.556Z,16.90
2022-08-08T03:18:52.947Z,16.90
2022-08-08T03:21:26.971Z,16.90
2022-08-08T03:24:10.412Z,16.80
2022-08-08T03:26:45.827Z,16.80
2022-08-08T03:29:38.089Z,16.80
2022-08-08T03:32:28.994Z,16.80
2022-08-08T03:34:58.665Z,16.80
2022-08-08T03:38:53.365Z,16.70
2022-08-08T03:40:29.758Z,16.70
2022-08-08T03:43:15.647Z,16.80
2022-08-08T03:46:02.979Z,16.70
2022-08-08T03:49:09.168Z,16.70
2022-08-08T03:51:40.240Z,16.70
2022-08-08T03:54:08.383Z,16.70
2022-08-08T03:56:38.081Z,16.60
2022-08-08T03:59:06.890Z,16.60
2022-08-08T04:02:31.818Z,16.60
2022-08-08T04:04:39.870Z,16.40
2022-08-08T04:07:10.448Z,16.60
2022-08-08T04:10:00.561Z,16.50
2022-08-08T04:12:35.982Z,16.50
2022-08-08T04:15:06.216Z,16.60
2022-08-08T04:17:46.143Z,16.60
2022-08-08T04:20:28.308Z,16.50
2022-08-08T04:22:58.171Z,16.50
2022-08-08T04:25:29.858Z,16.60
2022-08-08T04:28:03.382Z,16.50
2022-08-08T04:30:49.166Z,16.50
2022-08-08T04:33:17.212Z,16.30
2022-08-08T04:35:51.151Z,16.30
2022-08-08T04:38:21.207Z,16.50
2022-08-08T04:40:53.491Z,16.60
2022-08-08T04:43:31.244Z,16.60
2022-08-08T04:46:14.682Z,16.60
2022-08-08T04:48:43.381Z,16.60
2022-08-08T04:51:12.011Z,16.60
2022-08-08T04:54:30.284Z,16.60
2022-08-08T04:56:33.854Z,16.60
2022-08-08T04:59:03.334Z,16.70
2022-08-08T05:01:35.545Z,16.60
2022-08-08T05:04:16.007Z,16.70
2022-08-08T05:06:47.302Z,16.70
2022-08-08T05:09:18.909Z,16.70
2022-08-08T05:11:56.554Z,16.70
2022-08-08T05:14:26.892Z,16.70
2022-08-08T05:17:01.160Z,16.70
2022-08-08T05:20:09.243Z,16.70
2022-08-08T05:22:18.360Z,16.70
2022-08-08T05:24:48.529Z,16.80
2022-08-08T05:27:17.517Z,16.80
2022-08-08T05:29:50.236Z,16.80
2022-08-08T05:32:24.640Z,16.80
2022-08-08T05:35:01.829Z,16.80
2022-08-08T05:37:52.060Z,16.70
2022-08-08T05:40:27.938Z,16.80
2022-08-08T05:43:38.761Z,16.70
2022-08-08T05:46:03.028Z,16.80
2022-08-08T05:48:34.680Z,16.80
2022-08-08T05:51:15.385Z,16.90
2022-08-08T05:53:56.140Z,16.90
2022-08-08T05:56:42.471Z,17.00
2022-08-08T06:00:00.866Z,17.40
2022-08-08T06:02:41.046Z,18.40
2022-08-08T06:05:33.646Z,19.60
2022-08-08T06:08:09.660Z,20.60
2022-08-08T06:10:50.332Z,21.30
2022-08-08T06:13:23.315Z,22.30
2022-08-08T06:15:54.950Z,22.70
2022-08-08T06:18:27.315Z,23.30
2022-08-08T06:20:57.748Z,24.00
2022-08-08T06:23:53.371Z,24.40
2022-08-08T06:26:43.361Z,24.70
2022-08-08T06:29:26.646Z,25.00
2022-08-08T06:32:09.786Z,25.80
2022-08-08T06:34:56.605Z,25.90
2022-08-08T06:37:38.030Z,26.40
2022-08-08T06:40:16.105Z,26.80
2022-08-08T06:42:53.875Z,27.50
2022-08-08T06:45:23.950Z,27.60
2022-08-08T06:48:01.300Z,27.80
2022-08-08T06:50:33.579Z,28.00
2022-08-08T06:53:14.270Z,28.50
2022-08-08T06:56:00.472Z,28.60
2022-08-08T06:58:33.442Z,29.10
2022-08-08T07:01:24.490Z,29.10
2022-08-08T07:04:40.476Z,29.10
2022-08-08T07:06:56.006Z,29.00
2022-08-08T07:09:45.324Z,28.80
2022-08-08T07:12:30.552Z,29.00
2022-08-08T07:15:06.228Z,28.70
2022-08-08T07:18:01.569Z,29.60
2022-08-08T07:20:45.892Z,30.40
2022-08-08T07:23:25.245Z,30.50
2022-08-08T07:25:55.563Z,30.00
2022-08-08T07:28:24.931Z,30.60
2022-08-08T07:31:00.726Z,30.80
2022-08-08T07:33:37.760Z,31.10
2022-08-08T07:36:09.171Z,31.90
2022-08-08T07:38:39.174Z,32.40
2022-08-08T07:41:23.660Z,32.10
2022-08-08T07:43:58.814Z,32.40
2022-08-08T07:46:30.921Z,32.90
2022-08-08T07:48:59.200Z,33.00
2022-08-08T07:51:44.880Z,32.60
2022-08-08T07:54:29.122Z,33.50
2022-08-08T07:57:08.870Z,33.30
2022-08-08T07:59:49.040Z,33.40
2022-08-08T08:02:35.398Z,33.40
2022-08-08T08:05:15.095Z,33.50
2022-08-08T08:07:45.872Z,33.40
2022-08-08T08:10:30.444Z,33.00
2022-08-08T08:13:25.989Z,33.10
2022-08-08T08:16:11.382Z,33.70
2022-08-08T08:18:51.677Z,33.90
2022-08-08T08:21:44.098Z,34.20
2022-08-08T08:24:15.632Z,34.40
2022-08-08T08:26:47.142Z,35.00
2022-08-08T08:29:20.883Z,34.70
2022-08-08T08:31:57.521Z,34.70
2022-08-08T08:34:31.872Z,35.10
2022-08-08T08:37:00.835Z,34.60
2022-08-08T08:40:00.119Z,35.10
2022-08-08T08:42:31.409Z,35.00
2022-08-08T08:45:10.316Z,35.30
2022-08-08T08:47:53.183Z,35.70
2022-08-08T08:50:32.538Z,36.40
2022-08-08T08:53:54.837Z,36.30
2022-08-08T08:56:02.620Z,35.40
2022-08-08T08:58:37.602Z,35.50
2022-08-08T09:01:10.242Z,35.70
2022-08-08T09:03:45.903Z,36.20
2022-08-08T09:06:28.485Z,36.10
2022-08-08T09:09:07.126Z,36.00
2022-08-08T09:11:47.281Z,35.50
2022-08-08T09:14:27.548Z,36.30
2022-08-08T09:16:56.530Z,37.10
2022-08-08T09:22:02.626Z,37.40
2022-08-08T09:22:19.655Z,36.90
2022-08-08T09:24:58.500Z,37.70
2022-08-08T09:27:55.742Z,37.10
2022-08-08T09:30:20.035Z,37.10
2022-08-08T09:33:13.227Z,36.90
2022-08-08T09:35:49.130Z,37.30
2022-08-08T09:38:32.921Z,38.00
2022-08-08T09:41:06.642Z,37.90
2022-08-08T09:44:05.026Z,37.10
2022-08-08T09:46:38.792Z,37.20
2022-08-08T09:49:41.468Z,36.80
2022-08-08T09:52:07.617Z,37.10
2022-08-08T09:54:44.559Z,36.80
2022-08-08T09:57:19.446Z,35.50
2022-08-08T10:00:28.631Z,35.80
2022-08-08T10:02:46.060Z,36.10
2022-08-08T10:05:22.810Z,36.50
2022-08-08T10:08:00.537Z,36.50
2022-08-08T10:10:31.729Z,36.70
2022-08-08T10:13:14.258Z,37.10
2022-08-08T10:16:00.534Z,37.80
2022-08-08T10:18:33.765Z,37.20
2022-08-08T10:21:23.251Z,36.60
2022-08-08T10:23:58.570Z,37.20
2022-08-08T10:26:52.240Z,36.40
2022-08-08T10:29:25.139Z,36.40
2022-08-08T10:32:16.267Z,35.70
2022-08-08T10:35:01.477Z,35.80
2022-08-08T10:37:34.568Z,36.20
2022-08-08T10:40:16.220Z,36.00
2022-08-08T10:42:48.938Z,35.50
2022-08-08T10:45:17.645Z,36.10
2022-08-08T10:47:55.642Z,36.60
2022-08-08T10:50:33.751Z,36.10
2022-08-08T10:53:04.809Z,35.50
2022-08-08T10:55:46.652Z,35.20
2022-08-08T10:58:16.012Z,34.70
2022-08-08T11:00:53.136Z,35.20
2022-08-08T11:04:01.176Z,35.30
2022-08-08T11:06:34.234Z,35.30
2022-08-08T11:09:15.475Z,34.70
2022-08-08T11:12:04.771Z,34.50
2022-08-08T11:14:53.240Z,33.50
2022-08-08T11:18:00.335Z,32.20
2022-08-08T11:20:14.878Z,31.90
2022-08-08T11:22:52.201Z,31.50
2022-08-08T11:25:52.261Z,31.00
2022-08-08T11:28:14.826Z,30.20
2022-08-08T11:30:50.520Z,29.70
2022-08-08T11:33:52.868Z,29.60
2022-08-08T11:36:15.969Z,29.60
2022-08-08T11:38:55.339Z,29.70
2022-08-08T11:41:25.038Z,29.90
2022-08-08T11:43:58.394Z,29.60
2022-08-08T11:46:30.293Z,29.60
2022-08-08T11:49:04.180Z,29.40
2022-08-08T11:51:40.219Z,29.30
2022-08-08T11:54:33.270Z,29.30
2022-08-08T11:57:16.946Z,28.90
2022-08-08T12:00:01.827Z,28.90
2022-08-08T12:02:33.869Z,29.10
2022-08-08T12:05:07.907Z,29.10
2022-08-08T12:07:52.327Z,29.20
2022-08-08T12:10:24.016Z,29.20
2022-08-08T12:13:04.371Z,29.10
2022-08-08T12:15:42.613Z,29.20
2022-08-08T12:18:21.191Z,29.20
2022-08-08T12:20:54.787Z,29.20
2022-08-08T12:23:43.003Z,29.50
2022-08-08T12:26:28.246Z,29.60
2022-08-08T12:29:25.866Z,29.80
2022-08-08T12:32:13.390Z,29.50
2022-08-08T12:34:53.760Z,29.50
2022-08-08T12:37:39.981Z,29.50
2022-08-08T12:40:23.007Z,29.70
2022-08-08T12:42:55.573Z,29.80
2022-08-08T12:45:59.745Z,29.90
2022-08-08T12:48:36.215Z,29.80
2022-08-08T12:51:11.179Z,29.70
2022-08-08T12:53:59.090Z,29.60
2022-08-08T12:56:36.128Z,29.50
2022-08-08T12:59:16.535Z,29.50
2022-08-08T13:01:56.601Z,29.50
2022-08-08T13:04:27.972Z,29.50
2022-08-08T13:07:02.724Z,29.60
2022-08-08T13:09:57.484Z,29.50
2022-08-08T13:12:29.907Z,29.50
2022-08-08T13:15:03.571Z,29.60
2022-08-08T13:18:08.448Z,29.70
2022-08-08T13:20:24.045Z,29.80
2022-08-08T13:23:29.943Z,29.80
2022-08-08T13:25:51.031Z,30.00
2022-08-08T13:28:32.789Z,30.10
2022-08-08T13:31:03.872Z,29.90
2022-08-08T13:33:42.674Z,29.80
2022-08-08T13:36:11.899Z,29.70
2022-08-08T13:38:40.957Z,29.70
2022-08-08T13:41:16.959Z,29.80
2022-08-08T13:43:47.164Z,29.80
2022-08-08T13:46:26.846Z,29.70
2022-08-08T13:50:33.193Z,29.60
2022-08-08T13:51:55.522Z,29.60
2022-08-08T13:54:31.473Z,29.80
2022-08-08T13:57:08.753Z,29.80
2022-08-08T13:59:44.373Z,29.80
2022-08-08T14:02:21.231Z,29.90
2022-08-08T14:05:04.997Z,30.00
2022-08-08T14:07:51.877Z,29.70
2022-08-08T14:10:32.576Z,29.60
2022-08-08T14:13:09.878Z,29.70
2022-08-08T14:15:50.190Z,29.70
2022-08-08T14:18:37.030Z,29.80
2022-08-08T14:21:20.955Z,29.80
2022-08-08T14:24:04.795Z,29.80
2022-08-08T14:26:43.001Z,29.80
2022-08-08T14:29:30.397Z,29.80
2022-08-08T14:32:10.720Z,29.90
2022-08-08T14:34:43.236Z,30.00
2022-08-08T14:37:13.095Z,29.90
2022-08-08T14:39:48.276Z,29.80
2022-08-08T14:42:27.209Z,29.70
2022-08-08T14:45:00.334Z,29.70
2022-08-08T14:47:30.325Z,29.80
2022-08-08T14:50:16.104Z,29.80
2022-08-08T14:52:49.994Z,29.90
2022-08-08T14:55:22.497Z,29.80
2022-08-08T14:58:11.262Z,29.70
2022-08-08T15:00:44.372Z,29.70
2022-08-08T15:03:15.646Z,29.60
2022-08-08T15:05:53.906Z,29.60
2022-08-08T15:08:35.226Z,29.60
2022-08-08T15:11:09.369Z,29.60
2022-08-08T15:14:01.212Z,29.60
2022-08-08T15:16:29.845Z,29.60
2022-08-08T15:19:04.318Z,29.60
2022-08-08T15:21:34.650Z,29.60
2022-08-08T15:24:12.845Z,29.60
2022-08-08T15:26:46.679Z,29.70
2022-08-08T15:29:22.533Z,29.70
2022-08-08T15:32:02.844Z,29.60
2022-08-08T15:34:41.198Z,29.40
2022-08-08T15:37:10.895Z,29.50
2022-08-08T15:39:41.369Z,29.40
2022-08-08T15:42:31.446Z,29.40
2022-08-08T15:45:01.561Z,29.20
2022-08-08T15:47:31.216Z,29.20
2022-08-08T15:50:00.476Z,29.30
2022-08-08T15:52:34.190Z,29.40
2022-08-08T15:55:02.602Z,29.50
2022-08-08T15:57:35.660Z,29.40
2022-08-08T16:00:25.863Z,29.40
2022-08-08T16:02:57.992Z,29.40
2022-08-08T16:05:35.857Z,29.40
2022-08-08T16:08:20.102Z,29.40
2022-08-08T16:13:05.367Z,29.40
2022-08-08T16:13:46.442Z,29.30
2022-08-08T16:16:17.240Z,29.30
2022-08-08T16:18:56.188Z,29.30
2022-08-08T16:21:28.974Z,29.30
2022-08-08T16:24:00.726Z,29.30
2022-08-08T16:26:33.713Z,29.30
2022-08-08T16:29:09.447Z,29.20
2022-08-08T16:31:42.036Z,29.20
2022-08-08T16:34:18.496Z,29.20
2022-08-08T16:36:50.605Z,29.10
2022-08-08T16:40:00.954Z,28.90
2022-08-08T16:42:17.855Z,28.80
2022-08-08T16:44:54.664Z,28.80
2022-08-08T16:47:40.162Z,28.70
2022-08-08T16:50:15.115Z,28.80
2022-08-08T16:55:23.320Z,28.80
2022-08-08T16:55:56.044Z,28.70
2022-08-08T16:58:25.333Z,28.70
2022-08-08T17:00:54.595Z,28.80
2022-08-08T17:03:24.950Z,28.70
2022-08-08T17:06:03.242Z,28.60
2022-08-08T17:08:31.767Z,28.50
2022-08-08T17:11:10.966Z,28.40
2022-08-08T17:13:49.687Z,28.40
2022-08-08T17:16:24.440Z,28.40
2022-08-08T17:18:53.420Z,28.40
2022-08-08T17:21:21.937Z,28.30
2022-08-08T17:24:00.526Z,28.30
2022-08-08T17:26:32.602Z,28.20
2022-08-08T17:29:03.966Z,28.10
2022-08-08T17:31:45.573Z,28.10
2022-08-08T17:34:49.150Z,28.00
2022-08-08T17:37:09.431Z,27.90
2022-08-08T17:40:03.245Z,28.00
2022-08-08T17:42:30.435Z,27.80
2022-08-08T17:44:58.710Z,27.60
2022-08-08T17:47:28.412Z,27.40
2022-08-08T17:50:08.170Z,27.30
2022-08-08T17:52:38.325Z,27.20
2022-08-08T17:55:09.273Z,27.10
2022-08-08T17:57:58.049Z,27.00
2022-08-08T18:00:30.674Z,26.80
2022-08-08T18:03:07.272Z,26.80
2022-08-08T18:05:48.638Z,26.50
2022-08-08T18:08:25.186Z,26.40
2022-08-08T18:11:14.388Z,26.20
2022-08-08T18:13:47.074Z,26.00
2022-08-08T18:16:20.758Z,25.80
2022-08-08T18:18:55.967Z,25.80
2022-08-08T18:21:59.146Z,25.60
2022-08-08T18:24:19.435Z,25.50
2022-08-08T18:26:54.671Z,25.40
2022-08-08T18:29:29.766Z,25.40
2022-08-08T18:32:03.728Z,25.20
2022-08-08T18:34:33.476Z,25.00
2022-08-08T18:37:07.939Z,24.90
2022-08-08T18:39:37.698Z,24.80
2022-08-08T18:42:13.710Z,24.80
2022-08-08T18:44:53.061Z,24.60
2022-08-08T18:47:25.286Z,24.70
2022-08-08T18:49:58.240Z,24.50
2022-08-08T18:52:29.998Z,24.40
2022-08-08T18:55:09.182Z,24.20
2022-08-08T18:57:41.077Z,24.00
2022-08-08T19:00:15.740Z,23.80
2022-08-08T19:02:48.449Z,23.70
2022-08-08T19:05:24.371Z,23.80
2022-08-08T19:08:00.561Z,23.70
2022-08-08T19:10:30.512Z,23.70
2022-08-08T19:13:00.104Z,23.60
2022-08-08T19:15:33.913Z,23.60
2022-08-08T19:18:30.874Z,23.60
2022-08-08T19:20:52.030Z,23.60
2022-08-08T19:23:21.783Z,23.40
2022-08-08T19:26:27.062Z,23.20
2022-08-08T19:28:41.346Z,23.00
2022-08-08T19:31:13.021Z,22.90
2022-08-08T19:34:04.643Z,22.80
2022-08-08T19:36:34.862Z,22.90
2022-08-08T19:39:03.055Z,22.80
2022-08-08T19:41:33.972Z,22.70
2022-08-08T19:44:03.776Z,22.70
2022-08-08T19:46:33.942Z,22.60
2022-08-08T19:49:02.973Z,22.60
2022-08-08T19:51:34.720Z,22.40
2022-08-08T19:54:09.957Z,22.40
2022-08-08T19:56:39.736Z,22.30
2022-08-08T19:59:10.086Z,22.20
2022-08-08T20:02:01.625Z,22.00
2022-08-08T20:04:30.058Z,21.90
2022-08-08T20:07:05.545Z,21.70
2022-08-08T20:09:55.888Z,21.70
2022-08-08T20:12:32.361Z,21.40
2022-08-08T20:15:14.881Z,21.40
2022-08-08T20:17:48.547Z,21.40
2022-08-08T20:20:20.717Z,21.60
2022-08-08T20:22:53.961Z,21.40
2022-08-08T20:25:29.999Z,21.50
2022-08-08T20:28:06.816Z,21.50
2022-08-08T20:30:55.685Z,21.60
2022-08-08T20:35:57.897Z,21.50
2022-08-08T20:38:32.860Z,21.50
2022-08-08T20:41:05.977Z,21.40
2022-08-08T20:43:49.740Z,21.30
2022-08-08T20:46:25.317Z,21.20
2022-08-08T20:48:58.417Z,21.30
2022-08-08T20:51:31.586Z,21.30
2022-08-08T20:54:04.895Z,21.30
2022-08-08T20:57:04.545Z,21.20
2022-08-08T20:59:27.915Z,21.20
2022-08-08T21:02:06.052Z,21.00
2022-08-08T21:04:37.389Z,21.10
2022-08-08T21:07:08.141Z,21.10
2022-08-08T21:10:01.809Z,21.10
2022-08-08T21:12:32.387Z,20.90
2022-08-08T21:15:07.117Z,21.00
2022-08-08T21:17:37.520Z,20.90
2022-08-08T21:20:09.855Z,20.90
2022-08-08T21:22:38.566Z,21.00
2022-08-08T21:25:10.510Z,21.00
2022-08-08T21:28:09.702Z,20.90
2022-08-08T21:30:30.178Z,21.00
2022-08-08T21:32:58.393Z,20.90
2022-08-08T21:36:13.275Z,20.90
2022-08-08T21:38:18.281Z,20.80
2022-08-08T21:40:56.073Z,20.90
2022-08-08T21:43:33.123Z,20.90
2022-08-08T21:48:07.782Z,20.90
2022-08-08T21:48:52.073Z,20.80
2022-08-08T21:54:16.740Z,20.90
2022-08-08T21:54:32.400Z,21.00
2022-08-08T21:57:02.727Z,21.00
2022-08-08T22:00:01.511Z,21.00
2022-08-08T22:02:23.570Z,21.00
2022-08-08T22:04:56.082Z,21.00
2022-08-08T22:07:39.641Z,21.00
2022-08-08T22:10:18.287Z,21.00
2022-08-08T22:13:17.241Z,21.00
2022-08-08T22:15:59.439Z,21.00
2022-08-08T22:18:30.804Z,21.00
2022-08-08T22:21:01.560Z,21.20
2022-08-08T22:23:51.027Z,21.20
2022-08-08T22:26:28.968Z,21.20
2022-08-08T22:29:13.226Z,21.20
2022-08-08T22:31:58.599Z,21.10
2022-08-08T22:34:31.413Z,21.10
2022-08-08T22:36:59.686Z,21.20
2022-08-08T22:39:39.507Z,21.20
2022-08-08T22:42:27.391Z,21.30
2022-08-08T22:44:59.764Z,21.30
2022-08-08T22:47:29.338Z,21.30
2022-08-08T22:50:26.368Z,21.30
2022-08-08T22:54:15.638Z,21.40
2022-08-08T22:55:58.453Z,21.40
2022-08-08T22:58:32.871Z,21.40
2022-08-08T23:01:01.789Z,21.40
2022-08-08T23:03:53.264Z,21.50
2022-08-08T23:06:23.490Z,21.40
2022-08-08T23:08:55.563Z,21.40
2022-08-08T23:11:57.978Z,21.50
2022-08-08T23:14:18.008Z,21.40
2022-08-08T23:16:57.860Z,21.20
2022-08-08T23:19:30.758Z,21.30
2022-08-08T23:22:02.050Z,21.30
2022-08-08T23:24:36.100Z,21.30
2022-08-08T23:27:07.208Z,21.20
2022-08-08T23:29:35.287Z,21.20
2022-08-08T23:32:04.668Z,21.10
2022-08-08T23:34:34.085Z,21.10
2022-08-08T23:37:02.873Z,21.10
2022-08-08T23:39:41.851Z,20.90
2022-08-08T23:42:21.443Z,21.00
2022-08-08T23:44:50.232Z,20.90
2022-08-08T23:49:07.961Z,20.80
2022-08-08T23:50:30.152Z,20.90
2022-08-08T23:53:03.646Z,20.90
2022-08-08T23:55:34.194Z,20.70
2022-08-08T23:58:37.792Z,20.70
